createdAt,value
2019-02-27T00:02:22.724Z,22.60
2019-02-27T00:04:49.669Z,23.40
2019-02-27T00:07:20.828Z,23.25
2019-02-27T00:09:46.001Z,23.12
2019-02-27T00:12:13.364Z,23.47
2019-02-27T00:14:40.789Z,25.30
2019-02-27T00:17:08.365Z,23.10
2019-02-27T00:19:35.767Z,22.93
2019-02-27T00:22:03.336Z,23.73
2019-02-27T00:24:30.662Z,23.65
2019-02-27T00:26:58.028Z,23.38
2019-02-27T00:29:28.820Z,23.80
2019-02-27T00:31:54.335Z,22.93
2019-02-27T00:34:21.693Z,22.42
2019-02-27T00:36:48.997Z,23.32
2019-02-27T00:39:16.304Z,23.35
2019-02-27T00:41:46.138Z,22.67
2019-02-27T00:44:12.633Z,21.77
2019-02-27T00:46:39.995Z,23.35
2019-02-27T00:49:07.320Z,23.10
2019-02-27T00:51:34.657Z,22.07
2019-02-27T00:54:01.999Z,23.10
2019-02-27T00:56:29.330Z,22.67
2019-02-27T00:58:59.970Z,24.07
2019-02-27T01:01:25.628Z,22.20
2019-02-27T01:03:52.918Z,23.05
2019-02-27T01:06:20.204Z,23.38
2019-02-27T01:08:47.539Z,23.92
2019-02-27T01:11:18.127Z,26.02
2019-02-27T01:13:43.943Z,23.32
2019-02-27T01:16:11.224Z,23.38
2019-02-27T01:18:38.676Z,23.15
2019-02-27T01:21:05.962Z,21.35
2019-02-27T01:23:33.254Z,23.55
2019-02-27T01:26:00.544Z,23.47
2019-02-27T01:28:27.844Z,23.00
2019-02-27T01:30:55.152Z,22.60
2019-02-27T01:33:22.483Z,24.15
2019-02-27T01:35:52.293Z,25.25
2019-02-27T01:38:18.869Z,24.00
2019-02-27T01:40:46.150Z,24.02
2019-02-27T01:43:13.446Z,25.10
2019-02-27T01:45:40.759Z,24.00
2019-02-27T01:48:09.210Z,24.50
2019-02-27T01:50:37.309Z,24.05
2019-02-27T01:53:06.998Z,23.60
2019-02-27T01:55:33.871Z,22.45
2019-02-27T01:58:01.167Z,23.32
2019-02-27T02:00:28.454Z,24.18
2019-02-27T02:02:55.828Z,23.62
2019-02-27T02:05:26.124Z,22.77
2019-02-27T02:07:52.210Z,24.52
2019-02-27T02:10:19.580Z,24.32
2019-02-27T02:12:48.440Z,24.90
2019-02-27T02:15:27.097Z,23.87
2019-02-27T02:18:11.889Z,22.75
2019-02-27T02:20:43.389Z,24.43
2019-02-27T02:23:20.957Z,24.32
2019-02-27T02:25:55.786Z,25.68
2019-02-27T02:28:24.617Z,24.40
2019-02-27T02:30:56.372Z,22.98
2019-02-27T02:33:30.303Z,22.02
2019-02-27T02:36:04.645Z,23.25
2019-02-27T02:38:33.537Z,22.45
2019-02-27T02:41:07.996Z,22.80
2019-02-27T02:43:41.974Z,22.50
2019-02-27T02:46:13.954Z,23.10
2019-02-27T02:48:48.754Z,24.63
2019-02-27T02:51:17.565Z,23.52
2019-02-27T02:54:02.923Z,23.90
2019-02-27T02:56:31.745Z,22.07
2019-02-27T02:59:15.469Z,21.05
2019-02-27T03:01:49.364Z,21.07
2019-02-27T03:04:20.705Z,20.75
2019-02-27T03:06:49.535Z,22.70
2019-02-27T03:09:33.213Z,19.90
2019-02-27T03:12:08.087Z,20.37
2019-02-27T03:14:39.973Z,20.43
2019-02-27T03:17:19.187Z,20.97
2019-02-27T03:19:51.138Z,18.98
2019-02-27T03:22:19.965Z,18.05
2019-02-27T03:24:51.557Z,18.00
2019-02-27T03:27:29.589Z,18.73
2019-02-27T03:29:56.397Z,17.95
2019-02-27T03:32:41.114Z,18.75
2019-02-27T03:35:01.744Z,18.70
2019-02-27T03:37:33.443Z,17.27
2019-02-27T03:40:02.306Z,17.62
2019-02-27T03:42:34.157Z,19.75
2019-02-27T03:45:01.773Z,19.45
2019-02-27T03:47:30.668Z,21.37
2019-02-27T03:49:59.519Z,21.65
2019-02-27T03:52:40.100Z,21.57
2019-02-27T03:55:24.112Z,19.30
2019-02-27T03:57:56.116Z,18.95
2019-02-27T04:00:25.040Z,18.52
2019-02-27T04:02:53.876Z,22.17
2019-02-27T04:05:22.768Z,19.75
2019-02-27T04:07:51.629Z,19.90
2019-02-27T04:10:19.001Z,20.17
2019-02-27T04:12:51.383Z,18.67
2019-02-27T04:15:18.096Z,19.55
2019-02-27T04:17:43.819Z,19.87
2019-02-27T04:20:14.664Z,20.30
2019-02-27T04:22:40.455Z,19.48
2019-02-27T04:25:08.013Z,19.90
2019-02-27T04:27:35.380Z,18.32
2019-02-27T04:30:02.861Z,18.00
2019-02-27T04:32:30.154Z,17.48
2019-02-27T04:34:57.463Z,20.15
2019-02-27T04:37:24.760Z,18.12
2019-02-27T04:39:52.065Z,18.77
2019-02-27T04:42:19.339Z,20.08
2019-02-27T04:44:46.642Z,18.75
2019-02-27T04:47:13.922Z,18.50
2019-02-27T04:49:41.201Z,20.08
2019-02-27T04:52:08.521Z,20.62
2019-02-27T04:54:35.881Z,19.52
2019-02-27T04:57:03.198Z,19.35
2019-02-27T04:59:30.537Z,17.57
2019-02-27T05:01:57.835Z,18.90
2019-02-27T05:04:25.502Z,19.40
2019-02-27T05:06:52.868Z,20.20
2019-02-27T05:09:20.172Z,20.40
2019-02-27T05:11:49.108Z,18.30
2019-02-27T05:14:16.385Z,18.98
2019-02-27T05:16:47.025Z,17.95
2019-02-27T05:19:12.717Z,19.12
2019-02-27T05:21:40.008Z,19.98
2019-02-27T05:24:07.775Z,17.10
2019-02-27T05:26:36.029Z,19.50
2019-02-27T05:29:03.382Z,18.20
2019-02-27T05:31:30.681Z,20.02
2019-02-27T05:33:58.064Z,19.40
2019-02-27T05:36:25.424Z,19.40
2019-02-27T05:38:52.822Z,20.10
2019-02-27T05:41:20.209Z,20.68
2019-02-27T05:43:48.549Z,18.95
2019-02-27T05:46:16.042Z,17.87
2019-02-27T05:48:43.412Z,18.90
2019-02-27T05:51:10.788Z,18.15
2019-02-27T05:53:38.170Z,17.80
2019-02-27T05:56:05.477Z,18.00
2019-02-27T05:58:32.758Z,17.73
2019-02-27T06:01:04.946Z,18.20
2019-02-27T06:03:32.027Z,18.00
2019-02-27T06:05:59.316Z,18.02
2019-02-27T06:08:26.625Z,16.65
2019-02-27T06:10:56.026Z,17.82
2019-02-27T06:13:22.977Z,17.45
2019-02-27T06:15:50.335Z,18.70
2019-02-27T06:18:22.507Z,19.07
2019-02-27T06:20:46.668Z,18.35
2019-02-27T06:23:13.944Z,18.85
2019-02-27T06:25:41.234Z,19.17
2019-02-27T06:28:08.526Z,20.75
2019-02-27T06:30:35.831Z,20.23
2019-02-27T06:33:03.143Z,21.15
2019-02-27T06:35:33.515Z,21.10
2019-02-27T06:37:59.430Z,19.57
2019-02-27T06:40:26.733Z,19.07
2019-02-27T06:42:54.524Z,19.60
2019-02-27T06:45:23.056Z,19.10
2019-02-27T06:47:50.340Z,19.50
2019-02-27T06:50:17.639Z,21.73
2019-02-27T06:52:44.920Z,21.07
2019-02-27T06:55:15.303Z,20.45
2019-02-27T06:57:42.689Z,19.82
2019-02-27T07:00:11.368Z,20.60
2019-02-27T07:02:38.772Z,19.32
2019-02-27T07:05:07.044Z,19.82
2019-02-27T07:07:34.352Z,19.35
2019-02-27T07:10:01.648Z,20.35
2019-02-27T07:12:28.929Z,19.00
2019-02-27T07:14:56.234Z,19.37
2019-02-27T07:17:23.515Z,20.15
2019-02-27T07:19:50.822Z,18.77
2019-02-27T07:22:18.161Z,19.30
2019-02-27T07:24:45.478Z,19.02
2019-02-27T07:27:12.772Z,18.52
2019-02-27T07:29:40.082Z,19.95
2019-02-27T07:32:07.375Z,18.80
2019-02-27T07:34:34.656Z,18.30
2019-02-27T07:37:01.958Z,19.70
2019-02-27T07:39:32.630Z,18.85
2019-02-27T07:41:58.370Z,25.60
2019-02-27T07:44:25.666Z,21.23
2019-02-27T07:46:57.269Z,20.35
2019-02-27T07:49:21.973Z,19.48
2019-02-27T07:51:49.271Z,18.10
2019-02-27T07:54:16.555Z,18.75
2019-02-27T07:56:43.853Z,20.45
2019-02-27T07:59:11.147Z,19.42
2019-02-27T08:01:43.763Z,18.15
2019-02-27T08:04:07.495Z,18.90
2019-02-27T08:06:35.048Z,18.23
2019-02-27T08:09:05.515Z,20.95
2019-02-27T08:11:32.797Z,20.52
2019-02-27T08:14:00.723Z,21.68
2019-02-27T08:16:29.103Z,21.57
2019-02-27T08:18:56.407Z,23.47
2019-02-27T08:21:23.689Z,21.55
2019-02-27T08:23:50.987Z,23.07
2019-02-27T08:26:18.507Z,22.07
2019-02-27T08:28:45.874Z,23.67
2019-02-27T08:31:13.225Z,23.60
2019-02-27T08:33:40.511Z,24.80
2019-02-27T08:36:07.835Z,24.93
2019-02-27T08:38:35.213Z,23.60
2019-02-27T08:41:02.559Z,24.63
2019-02-27T08:43:30.521Z,23.30
2019-02-27T08:46:02.089Z,25.10
2019-02-27T08:48:27.194Z,23.60
2019-02-27T08:50:54.482Z,24.50
2019-02-27T08:53:25.992Z,24.03
2019-02-27T08:55:51.527Z,24.07
2019-02-27T08:58:18.824Z,24.53
2019-02-27T09:00:47.376Z,23.93
2019-02-27T09:03:20.224Z,26.60
2019-02-27T09:05:44.520Z,25.50
2019-02-27T09:08:11.896Z,24.33
2019-02-27T09:10:39.255Z,23.73
2019-02-27T09:13:06.560Z,24.60
2019-02-27T09:15:33.838Z,25.60
2019-02-27T09:18:01.798Z,26.97
2019-02-27T09:20:29.880Z,26.17
2019-02-27T09:22:57.184Z,25.13
2019-02-27T09:25:24.993Z,25.37
2019-02-27T09:27:52.459Z,25.47
2019-02-27T09:30:21.283Z,24.80
2019-02-27T09:32:48.600Z,23.60
2019-02-27T09:35:15.888Z,22.17
2019-02-27T09:37:43.366Z,24.77
2019-02-27T09:40:14.547Z,22.93
2019-02-27T09:42:41.857Z,22.40
2019-02-27T09:45:25.053Z,22.43
2019-02-27T09:47:52.427Z,22.43
2019-02-27T09:50:29.972Z,22.03
2019-02-27T09:52:57.464Z,24.07
2019-02-27T09:55:24.766Z,23.53
2019-02-27T09:57:52.068Z,23.50
2019-02-27T10:00:26.037Z,25.13
2019-02-27T10:02:52.844Z,22.97
2019-02-27T10:05:20.187Z,23.07
2019-02-27T10:07:48.445Z,23.57
2019-02-27T10:10:16.568Z,23.63
2019-02-27T10:12:43.864Z,22.30
2019-02-27T10:15:11.207Z,21.70
2019-02-27T10:17:41.096Z,22.77
2019-02-27T10:20:07.928Z,23.00
2019-02-27T10:22:35.305Z,22.83
2019-02-27T10:25:02.638Z,22.97
2019-02-27T10:27:30.034Z,22.63
2019-02-27T10:29:57.458Z,21.97
2019-02-27T10:32:24.852Z,22.70
2019-02-27T10:34:53.559Z,21.50
2019-02-27T10:37:21.326Z,22.60
2019-02-27T10:39:48.679Z,24.40
2019-02-27T10:42:16.008Z,22.87
2019-02-27T10:44:43.356Z,22.80
2019-02-27T10:47:10.742Z,21.33
2019-02-27T10:49:38.329Z,21.30
2019-02-27T10:52:05.742Z,20.43
2019-02-27T10:54:33.080Z,23.00
2019-02-27T10:57:00.400Z,23.30
2019-02-27T10:59:27.695Z,21.70
2019-02-27T11:01:55.836Z,22.20
2019-02-27T11:04:23.305Z,22.00
2019-02-27T11:06:51.198Z,23.67
2019-02-27T11:09:22.959Z,22.73
2019-02-27T11:11:53.752Z,22.33
2019-02-27T11:14:19.283Z,22.20
2019-02-27T11:16:46.629Z,21.90
2019-02-27T11:19:14.164Z,21.67
2019-02-27T11:21:42.959Z,20.47
2019-02-27T11:24:10.359Z,19.07
2019-02-27T11:26:37.738Z,21.17
2019-02-27T11:29:05.173Z,21.03
2019-02-27T11:31:32.546Z,19.27
2019-02-27T11:34:01.134Z,19.30
2019-02-27T11:36:28.503Z,20.27
2019-02-27T11:38:56.645Z,17.50
2019-02-27T11:41:24.873Z,20.80
2019-02-27T11:43:53.088Z,19.40
2019-02-27T11:46:20.549Z,18.03
2019-02-27T11:48:47.917Z,20.47
2019-02-27T11:51:17.505Z,18.57
2019-02-27T11:53:44.905Z,17.63
2019-02-27T11:56:12.363Z,14.53
2019-02-27T11:58:39.803Z,15.70
2019-02-27T12:01:07.417Z,13.60
2019-02-27T12:03:34.901Z,14.23
2019-02-27T12:06:02.264Z,13.57
2019-02-27T12:08:30.293Z,14.10
2019-02-27T12:10:57.653Z,14.00
2019-02-27T12:13:25.066Z,13.67
2019-02-27T12:15:52.425Z,15.20
2019-02-27T12:18:19.850Z,14.47
2019-02-27T12:20:51.063Z,14.63
2019-02-27T12:23:17.523Z,14.30
2019-02-27T12:25:45.969Z,14.77
2019-02-27T12:28:15.226Z,16.37
2019-02-27T12:30:42.519Z,12.50
2019-02-27T12:33:09.959Z,12.37
2019-02-27T12:35:37.405Z,12.70
2019-02-27T12:38:08.160Z,12.90
2019-02-27T12:40:35.941Z,11.63
2019-02-27T12:43:04.083Z,12.70
2019-02-27T12:45:31.611Z,11.80
2019-02-27T12:47:59.127Z,10.73
2019-02-27T12:50:31.184Z,10.47
2019-02-27T12:52:56.981Z,11.20
2019-02-27T12:55:24.407Z,9.90
2019-02-27T12:57:53.115Z,8.90
2019-02-27T13:00:22.289Z,9.77
2019-02-27T13:02:49.647Z,10.70
2019-02-27T13:05:17.934Z,10.60
2019-02-27T13:07:45.534Z,10.83
2019-02-27T13:10:14.304Z,11.23
2019-02-27T13:12:41.863Z,10.20
2019-02-27T13:15:10.911Z,11.03
2019-02-27T13:17:38.991Z,11.90
2019-02-27T13:20:09.181Z,12.60
2019-02-27T13:22:38.765Z,13.27
2019-02-27T13:25:06.301Z,12.40
2019-02-27T13:27:33.815Z,12.10
2019-02-27T13:30:08.762Z,14.20
2019-02-27T13:32:30.178Z,11.83
2019-02-27T13:34:57.557Z,11.93
2019-02-27T13:37:24.940Z,12.87
2019-02-27T13:39:52.302Z,12.60
2019-02-27T13:42:19.595Z,13.70
2019-02-27T13:44:46.912Z,13.40
2019-02-27T13:47:15.965Z,13.03
2019-02-27T13:49:45.003Z,13.70
2019-02-27T13:52:13.232Z,12.30
2019-02-27T13:54:40.714Z,14.23
2019-02-27T13:57:08.108Z,12.87
2019-02-27T13:59:35.966Z,12.10
2019-02-27T14:02:04.017Z,13.20
2019-02-27T14:04:32.203Z,13.67
2019-02-27T14:06:59.614Z,12.53
2019-02-27T14:09:27.025Z,12.17
2019-02-27T14:11:58.382Z,12.07
2019-02-27T14:14:23.459Z,12.80
2019-02-27T14:16:50.904Z,12.10
2019-02-27T14:19:21.394Z,10.97
2019-02-27T14:21:47.981Z,11.53
2019-02-27T14:24:20.329Z,11.57
2019-02-27T14:26:45.364Z,12.13
2019-02-27T14:29:12.714Z,13.27
2019-02-27T14:31:43.489Z,13.43
2019-02-27T14:34:09.837Z,10.80
2019-02-27T14:36:39.337Z,12.30
2019-02-27T14:39:07.796Z,12.30
2019-02-27T14:41:36.150Z,12.60
2019-02-27T14:44:04.620Z,12.03
2019-02-27T14:46:33.114Z,11.93
2019-02-27T15:25:19.907Z,9.70
2019-02-27T15:27:48.251Z,8.75
2019-02-27T15:30:16.781Z,8.98
2019-02-27T15:32:44.145Z,8.33
2019-02-27T15:35:12.209Z,9.33
2019-02-27T15:37:39.663Z,8.40
2019-02-27T15:40:08.646Z,9.63
2019-02-27T15:42:36.151Z,9.33
2019-02-27T15:45:09.170Z,8.45
2019-02-27T22:24:36.006Z,14.00
2019-02-27T22:27:03.392Z,13.18
2019-02-27T22:29:30.740Z,12.45
2019-02-27T22:31:58.017Z,12.82
2019-02-27T22:34:27.798Z,13.55
2019-02-27T22:36:54.413Z,13.83
2019-02-27T22:39:21.771Z,12.98
2019-02-27T22:41:49.065Z,11.73
2019-02-27T22:44:16.370Z,13.45
2019-02-27T22:46:43.712Z,11.93
2019-02-27T22:49:11.083Z,12.82
2019-02-27T22:51:38.460Z,13.30
2019-02-27T22:54:05.950Z,13.90
2019-02-27T22:56:33.239Z,12.63
2019-02-27T22:59:03.015Z,13.20
2019-02-27T23:01:31.278Z,12.58
2019-02-27T23:03:58.745Z,12.45
2019-02-27T23:06:26.150Z,12.45
2019-02-27T23:08:54.395Z,11.85
2019-02-27T23:11:22.400Z,12.05
2019-02-27T23:13:49.851Z,12.68
2019-02-27T23:16:17.198Z,12.00
2019-02-27T23:18:44.557Z,13.30
2019-02-27T23:21:11.849Z,12.05
2019-02-27T23:23:39.137Z,11.75
2019-02-27T23:26:06.531Z,12.37
2019-02-27T23:28:34.859Z,12.00
2019-02-27T23:31:02.760Z,13.20
2019-02-27T23:33:30.047Z,12.28
2019-02-27T23:35:57.350Z,13.28
2019-02-27T23:38:24.658Z,12.70
2019-02-27T23:40:52.103Z,13.03
2019-02-27T23:43:19.795Z,12.43
2019-02-27T23:45:47.275Z,12.47
2019-02-27T23:48:14.965Z,14.05
2019-02-27T23:50:43.252Z,12.45
2019-02-27T23:53:10.630Z,11.85
2019-02-27T23:55:37.997Z,12.50
2019-02-27T23:58:05.316Z,12.90
